Saint Petersburg, Florida
Current Conditions -  °F | °C
As of 2:53 AM on Saturday 25 Oct 2014 (Local Time) from KSPG Reporting Station
Clear Clear  
Wind Chill: 69°   Ceiling: Unl
Heat Index: 69°   Visibility: 10mi
Dew Point: 60°   Wind: 10mph
Humidity: 73%   Direction: 40°NE
Pressure: 29.96"   Gusts: NA
Location:  27.77°N, 82.63°W
Report Text: KSPG 250653Z AUTO 04009KT 10SM CLR 21/16 A2996 RMK AO2 SLP143 T02060156
Loading
Personal Weather Stations






























Interactive Weather Map
Tropical Storm Tracking
New forecast layout! Learn more

10-Day Weather Forecast

Advertisements
Track Severe Weather on mobile